sensor_id;sensor_type;location;lat;lon;timestamp;P1;durP1;ratioP1;P2;durP2;ratioP2
35394;SDS011;21500;45.308;9.488;2023-02-18T11:02:42;17.88;;;15.32;;
35394;SDS011;21500;45.308;9.488;2023-02-18T11:13:58;19.65;;;16.08;;
35394;SDS011;21500;45.308;9.488;2023-02-18T11:16:38;19.58;;;14.90;;
35394;SDS011;21500;45.308;9.488;2023-02-18T11:22:14;16.70;;;14.52;;
35394;SDS011;21500;45.308;9.488;2023-02-18T11:25:01;16.45;;;14.73;;
35394;SDS011;21500;45.308;9.488;2023-02-18T11:27:56;16.02;;;13.68;;
35394;SDS011;21500;45.308;9.488;2023-02-18T11:30:26;15.77;;;14.20;;
35394;SDS011;21500;45.308;9.488;2023-02-18T11:33:42;16.38;;;13.40;;
35394;SDS011;21500;45.308;9.488;2023-02-18T11:36:02;16.50;;;14.73;;
35394;SDS011;21500;45.308;9.488;2023-02-18T11:38:50;21.52;;;14.93;;
35394;SDS011;21500;45.308;9.488;2023-02-18T11:41:37;18.67;;;15.45;;
35394;SDS011;21500;45.308;9.488;2023-02-18T11:44:37;14.38;;;12.88;;
35394;SDS011;21500;45.308;9.488;2023-02-18T11:47:35;15.98;;;13.75;;
35394;SDS011;21500;45.308;9.488;2023-02-18T11:52:35;14.20;;;12.73;;
35394;SDS011;21500;45.308;9.488;2023-02-18T11:55:07;18.95;;;12.82;;
35394;SDS011;21500;45.308;9.488;2023-02-18T11:57:37;14.18;;;12.77;;
35394;SDS011;21500;45.308;9.488;2023-02-18T12:00:15;15.88;;;11.88;;
35394;SDS011;21500;45.308;9.488;2023-02-18T12:03:00;15.40;;;13.35;;
35394;SDS011;21500;45.308;9.488;2023-02-18T12:05:31;13.77;;;10.65;;
35394;SDS011;21500;45.308;9.488;2023-02-18T12:08:04;12.85;;;10.65;;
35394;SDS011;21500;45.308;9.488;2023-02-18T12:10:49;12.65;;;11.25;;
35394;SDS011;21500;45.308;9.488;2023-02-18T12:13:36;12.95;;;10.80;;
35394;SDS011;21500;45.308;9.488;2023-02-18T12:22:04;16.88;;;13.35;;
35394;SDS011;21500;45.308;9.488;2023-02-18T12:25:02;14.05;;;11.88;;
35394;SDS011;21500;45.308;9.488;2023-02-18T12:41:46;13.93;;;11.55;;
35394;SDS011;21500;45.308;9.488;2023-02-18T13:14:02;11.02;;;9.15;;
35394;SDS011;21500;45.308;9.488;2023-02-18T13:16:28;10.48;;;8.80;;
35394;SDS011;21500;45.308;9.488;2023-02-18T13:22:03;9.70;;;8.00;;
35394;SDS011;21500;45.308;9.488;2023-02-18T13:24:33;11.50;;;9.55;;
35394;SDS011;21500;45.308;9.488;2023-02-18T13:33:42;10.95;;;9.57;;
35394;SDS011;21500;45.308;9.488;2023-02-18T13:39:56;11.57;;;10.23;;
35394;SDS011;21500;45.308;9.488;2023-02-18T13:50:12;9.82;;;8.82;;
35394;SDS011;21500;45.308;9.488;2023-02-18T13:53:22;11.32;;;10.10;;
35394;SDS011;21500;45.308;9.488;2023-02-18T14:39:47;10.75;;;8.38;;
35394;SDS011;21500;45.308;9.488;2023-02-18T14:43:07;8.25;;;7.45;;
35394;SDS011;21500;45.308;9.488;2023-02-18T14:55:04;7.60;;;5.07;;
35394;SDS011;21500;45.308;9.488;2023-02-18T14:57:47;7.20;;;3.80;;
35394;SDS011;21500;45.308;9.488;2023-02-18T15:00:28;6.50;;;4.90;;
35394;SDS011;21500;45.308;9.488;2023-02-18T15:03:13;6.65;;;4.15;;
35394;SDS011;21500;45.308;9.488;2023-02-18T15:05:42;4.28;;;3.88;;
35394;SDS011;21500;45.308;9.488;2023-02-18T15:08:18;6.10;;;3.63;;
35394;SDS011;21500;45.308;9.488;2023-02-18T15:11:07;5.30;;;3.60;;
35394;SDS011;21500;45.308;9.488;2023-02-18T15:13:40;4.28;;;3.50;;
35394;SDS011;21500;45.308;9.488;2023-02-18T15:18:54;6.93;;;3.63;;
35394;SDS011;21500;45.308;9.488;2023-02-18T15:22:01;4.78;;;4.28;;
35394;SDS011;21500;45.308;9.488;2023-02-18T15:27:54;7.70;;;4.03;;
35394;SDS011;21500;45.308;9.488;2023-02-18T15:30:29;5.88;;;4.57;;
35394;SDS011;21500;45.308;9.488;2023-02-18T15:32:57;7.03;;;4.50;;
35394;SDS011;21500;45.308;9.488;2023-02-18T15:35:28;5.95;;;4.15;;
35394;SDS011;21500;45.308;9.488;2023-02-18T15:37:57;6.80;;;4.05;;
35394;SDS011;21500;45.308;9.488;2023-02-18T15:40:26;4.40;;;3.80;;
35394;SDS011;21500;45.308;9.488;2023-02-18T15:42:58;4.68;;;3.90;;
35394;SDS011;21500;45.308;9.488;2023-02-18T15:45:33;6.35;;;4.75;;
35394;SDS011;21500;45.308;9.488;2023-02-18T15:48:06;4.30;;;3.90;;
35394;SDS011;21500;45.308;9.488;2023-02-18T15:50:46;5.25;;;3.78;;
35394;SDS011;21500;45.308;9.488;2023-02-18T15:53:18;7.88;;;4.00;;
35394;SDS011;21500;45.308;9.488;2023-02-18T15:55:49;5.53;;;4.05;;
35394;SDS011;21500;45.308;9.488;2023-02-18T15:58:23;4.32;;;3.63;;
35394;SDS011;21500;45.308;9.488;2023-02-18T16:00:59;6.93;;;3.75;;
35394;SDS011;21500;45.308;9.488;2023-02-18T16:03:45;6.40;;;4.15;;
35394;SDS011;21500;45.308;9.488;2023-02-18T16:09:06;5.43;;;3.70;;
35394;SDS011;21500;45.308;9.488;2023-02-18T16:11:37;6.63;;;4.35;;
35394;SDS011;21500;45.308;9.488;2023-02-18T16:14:22;7.72;;;4.22;;
35394;SDS011;21500;45.308;9.488;2023-02-18T16:17:03;5.15;;;4.40;;
35394;SDS011;21500;45.308;9.488;2023-02-18T16:25:13;6.50;;;3.42;;
35394;SDS011;21500;45.308;9.488;2023-02-18T16:28:01;4.00;;;2.97;;
35394;SDS011;21500;45.308;9.488;2023-02-18T16:30:48;6.60;;;3.92;;
35394;SDS011;21500;45.308;9.488;2023-02-18T16:33:14;3.42;;;2.90;;
35394;SDS011;21500;45.308;9.488;2023-02-18T16:35:41;6.15;;;3.80;;
35394;SDS011;21500;45.308;9.488;2023-02-18T16:38:10;4.22;;;3.70;;
35394;SDS011;21500;45.308;9.488;2023-02-18T16:40:41;11.77;;;5.30;;
35394;SDS011;21500;45.308;9.488;2023-02-18T16:43:12;3.67;;;3.28;;
35394;SDS011;21500;45.308;9.488;2023-02-18T16:45:40;4.95;;;3.28;;
35394;SDS011;21500;45.308;9.488;2023-02-18T16:48:24;4.20;;;3.50;;
35394;SDS011;21500;45.308;9.488;2023-02-18T16:56:37;6.05;;;3.75;;
35394;SDS011;21500;45.308;9.488;2023-02-18T16:59:05;3.78;;;3.45;;
35394;SDS011;21500;45.308;9.488;2023-02-18T17:01:36;7.40;;;3.83;;
35394;SDS011;21500;45.308;9.488;2023-02-18T17:04:34;4.95;;;4.45;;
35394;SDS011;21500;45.308;9.488;2023-02-18T17:07:07;5.25;;;4.00;;
35394;SDS011;21500;45.308;9.488;2023-02-18T17:10:01;7.13;;;4.43;;
